Time;durP1;ratioP1;P1;durP2;ratioP2;P2;SDS_P1;SDS_P2;PMS_P1;PMS_P2;Temp;Humidity;BMP_temperature;BMP_pressure;BME280_temperature;BME280_humidity;BME280_pressure;Samples;Min_cycle;Max_cycle;Signal;HPM_P1;HPM_P2
2023/03/21 00:02:05;;;;;;;0.87;0.87;;;5.90;99.90;6.30;96946.00;;;;5100649;28;20219;-69
2023/03/21 00:04:54;;;;;;;1.87;1.30;;;5.70;99.90;6.30;96946.00;;;;5101033;28;20230;-72
2023/03/21 00:07:48;;;;;;;3.67;1.30;;;5.60;99.90;6.70;96950.00;;;;5098689;28;20218;-68
2023/03/21 00:10:37;;;;;;;1.37;1.27;;;5.60;99.90;6.30;96932.00;;;;5098430;28;20219;-69
2023/03/21 00:13:31;;;;;;;1.77;1.27;;;5.50;99.90;6.00;96947.00;;;;5102512;27;20211;-73
2023/03/21 00:16:20;;;;;;;3.83;1.33;;;5.40;99.90;6.20;96942.00;;;;5100856;28;20198;-72
2023/03/21 00:19:09;;;;;;;1.80;1.40;;;5.30;99.90;6.50;96940.00;;;;5100708;28;20200;-68
2023/03/21 00:22:00;;;;;;;3.23;2.93;;;5.40;99.90;6.80;96942.00;;;;5100001;28;20222;-69
2023/03/21 00:24:55;;;;;;;3.03;1.47;;;5.40;99.90;7.30;96946.00;;;;5099115;28;20607;-70
2023/03/21 00:27:44;;;;;;;1.53;1.43;;;5.60;99.90;7.30;96941.00;;;;5098050;28;20575;-70
2023/03/21 00:30:59;;;;;;;1.70;1.60;;;5.70;99.90;6.60;96943.00;;;;5095504;28;20217;-72
2023/03/21 00:33:47;;;;;;;1.77;1.10;;;5.70;99.90;6.90;96948.00;;;;5097843;28;20196;-72
2023/03/21 00:36:36;;;;;;;1.70;1.27;;;5.70;99.90;7.10;96939.00;;;;5098511;28;20615;-70
2023/03/21 00:39:25;;;;;;;2.37;1.60;;;5.80;99.90;7.50;96948.00;;;;5102370;28;20223;-72
2023/03/21 00:42:14;;;;;;;1.53;1.43;;;5.90;99.90;7.60;96928.00;;;;5092896;28;20682;-70
2023/03/21 00:45:03;;;;;;;3.00;1.53;;;6.00;99.90;7.80;96927.00;;;;5091936;28;20223;-71
2023/03/21 00:47:53;;;;;;;2.60;1.83;;;6.20;99.90;8.00;96935.00;;;;5097533;28;20194;-70
2023/03/21 00:50:44;;;;;;;2.20;1.30;;;6.30;99.90;7.70;96928.00;;;;5093672;28;20219;-73
2023/03/21 00:53:32;;;;;;;2.20;0.90;;;6.40;99.90;7.50;96925.00;;;;5106401;28;20192;-71
2023/03/21 00:56:21;;;;;;;1.50;1.40;;;6.30;99.90;7.30;96917.00;;;;5095141;28;20239;-72
2023/03/21 00:59:10;;;;;;;4.27;1.37;;;6.30;99.90;7.40;96916.00;;;;5093305;28;20611;-71
2023/03/21 01:01:59;;;;;;;1.30;1.17;;;6.20;99.90;7.60;96923.00;;;;5097329;28;20215;-70
2023/03/21 01:04:50;;;;;;;2.47;1.47;;;6.20;99.90;7.80;96910.00;;;;5094518;28;20230;-71
2023/03/21 01:07:38;;;;;;;1.80;1.00;;;6.30;99.90;7.90;96925.00;;;;5097898;28;20203;-71
2023/03/21 01:10:27;;;;;;;3.60;1.30;;;6.30;99.90;7.60;96914.00;;;;5098562;28;20227;-71
2023/03/21 01:13:19;;;;;;;1.60;1.40;;;6.30;99.90;7.70;96910.00;;;;5094138;28;20250;-70
2023/03/21 01:16:10;;;;;;;1.90;1.30;;;6.30;99.90;7.80;96920.00;;;;5094272;28;20235;-71
2023/03/21 01:18:59;;;;;;;1.47;1.10;;;6.30;99.90;7.90;96916.00;;;;5097332;28;20222;-70
2023/03/21 01:21:50;;;;;;;2.80;2.00;;;6.30;99.90;7.80;96919.00;;;;5098266;28;20210;-71
2023/03/21 01:24:38;;;;;;;3.07;1.27;;;6.30;99.90;7.40;96914.00;;;;5097334;28;20200;-71
2023/03/21 01:27:37;;;;;;;1.50;1.37;;;6.30;99.90;7.50;96902.00;;;;5096641;28;20203;-71
2023/03/21 01:30:26;;;;;;;1.47;1.37;;;6.20;99.90;7.50;96896.00;;;;5105258;28;20250;-69
2023/03/21 01:33:20;;;;;;;2.13;1.37;;;6.20;99.90;7.40;96898.00;;;;5092746;28;20191;-71
2023/03/21 01:36:20;;;;;;;2.80;1.43;;;6.20;99.90;7.60;96900.00;;;;5098700;28;20198;-72
2023/03/21 01:39:12;;;;;;;2.23;1.63;;;6.20;99.90;7.40;96898.00;;;;5106489;28;20191;-71
2023/03/21 01:42:01;;;;;;;1.90;1.50;;;6.20;99.90;7.30;96901.00;;;;5091977;28;20220;-72
2023/03/21 01:44:56;;;;;;;2.77;1.30;;;6.10;99.90;7.30;96885.00;;;;5103510;28;20191;-71
2023/03/21 01:47:45;;;;;;;1.50;1.30;;;6.10;99.90;7.50;96895.00;;;;5096992;28;20218;-72
2023/03/21 01:50:35;;;;;;;1.10;0.77;;;6.00;99.90;7.50;96898.00;;;;5096451;28;20863;-72
2023/03/21 01:53:29;;;;;;;1.17;0.93;;;6.10;99.90;7.60;96886.00;;;;5108059;28;20198;-72
2023/03/21 01:56:25;;;;;;;1.73;1.10;;;6.10;99.90;7.50;96879.00;;;;5096971;28;20203;-72
2023/03/21 01:59:21;;;;;;;1.10;1.00;;;6.10;99.90;7.40;96879.00;;;;5107819;27;20202;-72
2023/03/21 02:02:16;;;;;;;2.93;1.10;;;6.10;99.90;7.50;96870.00;;;;5097224;28;20214;-72
2023/03/21 02:05:05;;;;;;;0.87;0.87;;;6.10;99.90;7.10;96863.00;;;;5092528;28;20219;-72
2023/03/21 02:07:54;;;;;;;0.80;0.80;;;6.00;99.90;7.20;96872.00;;;;5099997;28;20235;-72
2023/03/21 02:10:44;;;;;;;1.47;1.13;;;5.90;99.90;7.00;96864.00;;;;5094491;28;20300;-72
2023/03/21 02:13:35;;;;;;;1.23;1.13;;;5.90;99.90;7.10;96856.00;;;;5098994;28;20671;-72
2023/03/21 02:16:36;;;;;;;2.30;1.20;;;5.80;99.90;7.30;96861.00;;;;5092125;28;20203;-72
2023/03/21 02:20:10;;;;;;;0.90;0.90;;;5.80;99.90;6.90;96858.00;;;;5096755;28;20195;-72
2023/03/21 02:24:00;;;;;;;1.50;1.17;;;5.70;99.90;6.80;96859.00;;;;5097311;28;20303;-72
2023/03/21 02:27:10;;;;;;;2.13;1.00;;;5.60;99.90;6.80;96863.00;;;;5097743;28;20307;-72
2023/03/21 02:30:44;;;;;;;1.57;1.33;;;5.50;99.90;6.80;96855.00;;;;5095289;28;20202;-72
2023/03/21 02:34:33;;;;;;;1.23;1.00;;;5.40;99.90;6.80;96860.00;;;;5091882;28;20202;-72
2023/03/21 02:37:27;;;;;;;1.23;0.97;;;5.40;99.90;6.80;96855.00;;;;5067087;28;20218;-73
2023/03/21 02:40:32;;;;;;;0.80;0.80;;;5.30;99.90;6.80;96859.00;;;;5096565;28;20233;-72
2023/03/21 02:43:30;;;;;;;0.97;0.97;;;5.30;99.90;6.80;96859.00;;;;5097062;28;20199;-72
2023/03/21 02:46:22;;;;;;;0.80;0.80;;;5.30;99.90;6.10;96861.00;;;;5097223;28;20218;-72
2023/03/21 02:49:22;;;;;;;1.20;0.90;;;5.20;99.90;5.60;96858.00;;;;5100263;28;20198;-73
2023/03/21 02:52:16;;;;;;;1.30;1.20;;;4.90;99.90;5.50;96854.00;;;;5104511;28;20301;-71
2023/03/21 02:55:25;;;;;;;3.17;1.30;;;4.70;99.90;6.00;96852.00;;;;5107008;28;20237;-72
2023/03/21 02:58:18;;;;;;;1.97;0.83;;;4.70;99.90;5.90;96866.00;;;;5095188;28;20191;-72
2023/03/21 03:01:07;;;;;;;2.03;1.20;;;4.70;99.90;5.50;96866.00;;;;5108110;28;20226;-72
2023/03/21 03:03:56;;;;;;;1.70;1.30;;;4.60;99.90;5.40;96853.00;;;;5097157;28;20210;-72
2023/03/21 03:07:05;;;;;;;1.40;0.80;;;4.50;99.90;5.80;96854.00;;;;5104987;28;20746;-72
2023/03/21 03:10:12;;;;;;;2.10;1.43;;;4.50;99.90;5.90;96866.00;;;;5100460;28;20199;-72
2023/03/21 03:13:15;;;;;;;1.67;1.10;;;4.50;99.90;5.70;96860.00;;;;5100809;28;20700;-72
2023/03/21 03:16:17;;;;;;;1.20;1.10;;;4.50;99.90;5.40;96860.00;;;;5100531;28;20437;-70
2023/03/21 03:19:11;;;;;;;2.57;0.83;;;4.40;99.90;5.10;96862.00;;;;5108462;28;20450;-71
2023/03/21 03:22:06;;;;;;;2.13;0.93;;;4.30;99.90;5.50;96868.00;;;;5098911;28;20436;-71
2023/03/21 03:25:00;;;;;;;0.93;0.90;;;4.20;99.90;5.60;96867.00;;;;5098443;28;20425;-71
2023/03/21 03:28:04;;;;;;;1.90;1.30;;;4.20;99.90;5.00;96862.00;;;;5098551;28;20749;-71
2023/03/21 03:30:55;;;;;;;3.58;1.10;;;4.10;99.90;4.90;96853.00;;;;5096077;28;20397;-71
2023/03/21 03:34:01;;;;;;;1.40;1.30;;;4.10;99.90;5.00;96854.00;;;;5098834;28;20187;-71
2023/03/21 03:36:56;;;;;;;3.53;1.90;;;4.00;99.90;4.70;96848.00;;;;5099934;28;20210;-71
2023/03/21 03:39:51;;;;;;;1.63;1.53;;;3.90;99.90;4.70;96851.00;;;;5109610;28;20195;-70
2023/03/21 03:42:44;;;;;;;1.30;1.20;;;3.80;99.90;5.20;96856.00;;;;5097300;28;20449;-71
2023/03/21 03:45:39;;;;;;;0.97;0.97;;;3.80;99.90;5.40;96849.00;;;;5098920;28;20535;-71
2023/03/21 03:48:35;;;;;;;1.27;1.13;;;3.90;99.90;5.40;96849.00;;;;5107074;28;20513;-70
2023/03/21 03:51:29;;;;;;;1.10;1.00;;;4.00;99.90;4.80;96858.00;;;;5098387;28;20439;-70
2023/03/21 03:54:23;;;;;;;1.73;1.63;;;3.90;99.90;4.90;96856.00;;;;5104083;28;20470;-70
2023/03/21 03:57:13;;;;;;;1.40;1.30;;;3.90;99.90;4.80;96860.00;;;;5099561;28;20416;-71
2023/03/21 04:00:05;;;;;;;1.40;1.40;;;3.80;99.90;4.70;96853.00;;;;5094798;28;20429;-70
2023/03/21 04:02:57;;;;;;;1.65;1.27;;;3.80;99.90;4.70;96838.00;;;;5099386;28;20378;-71
2023/03/21 04:05:46;;;;;;;1.07;0.97;;;3.80;99.90;3.90;96837.00;;;;5096189;28;20195;-71
2023/03/21 04:08:36;;;;;;;1.30;1.20;;;3.70;99.90;4.40;96836.00;;;;5094551;28;20418;-67
2023/03/21 04:11:26;;;;;;;0.67;0.67;;;3.60;99.90;3.80;96841.00;;;;5091100;28;20606;-70
2023/03/21 04:14:15;;;;;;;1.30;1.13;;;3.50;99.90;3.80;96849.00;;;;5098797;28;20425;-70
2023/03/21 04:17:03;;;;;;;1.67;1.07;;;3.40;99.90;4.00;96846.00;;;;5098502;28;20429;-67
2023/03/21 04:19:53;;;;;;;4.57;1.17;;;3.30;99.90;4.60;96858.00;;;;5092818;28;20452;-68
2023/03/21 04:22:53;;;;;;;1.27;1.17;;;3.40;99.90;4.70;96855.00;;;;5098460;28;20437;-71
2023/03/21 04:25:41;;;;;;;1.03;1.00;;;3.40;99.90;4.50;96863.00;;;;5099257;28;20912;-72
2023/03/21 04:28:43;;;;;;;2.10;1.80;;;3.50;99.90;4.70;96859.00;;;;5095138;27;20428;-69
2023/03/21 04:31:33;;;;;;;2.90;1.43;;;3.60;99.90;4.20;96862.00;;;;5098240;28;20441;-71
2023/03/21 04:34:22;;;;;;;1.30;1.20;;;3.50;99.90;4.50;96861.00;;;;5095694;28;20944;-69
2023/03/21 04:37:14;;;;;;;6.80;1.63;;;3.50;99.90;4.10;96852.00;;;;5094099;28;20421;-71
2023/03/21 04:40:06;;;;;;;0.90;0.83;;;3.30;99.90;4.00;96860.00;;;;5106907;28;20448;-71
2023/03/21 04:42:55;;;;;;;1.37;1.27;;;3.30;99.90;3.90;96857.00;;;;5099077;28;20862;-71
2023/03/21 04:45:44;;;;;;;5.77;1.50;;;3.20;99.90;3.80;96860.00;;;;5104227;28;20482;-69
2023/03/21 04:48:32;;;;;;;1.43;1.20;;;3.10;99.90;3.90;96861.00;;;;5096829;28;20432;-70
2023/03/21 04:51:21;;;;;;;1.03;1.03;;;3.00;99.90;4.10;96849.00;;;;5101843;28;20506;-71
2023/03/21 04:54:12;;;;;;;1.33;1.20;;;3.00;99.90;3.90;96862.00;;;;5104969;28;20490;-68
2023/03/21 04:57:01;;;;;;;1.30;1.20;;;3.00;99.90;3.10;96864.00;;;;5095226;28;20944;-70
2023/03/21 04:59:49;;;;;;;2.50;1.30;;;2.90;99.90;3.30;96871.00;;;;5103416;28;20780;-67
2023/03/21 05:02:38;;;;;;;2.07;1.20;;;2.80;99.90;3.80;96873.00;;;;5103953;28;20440;-71
2023/03/21 05:05:27;;;;;;;3.77;1.40;;;2.90;99.90;4.40;96875.00;;;;5107714;28;20429;-69
2023/03/21 05:08:16;;;;;;;2.23;1.23;;;3.00;99.90;4.70;96875.00;;;;5107686;28;20502;-72
2023/03/21 05:11:07;;;;;;;2.63;1.40;;;3.20;99.90;4.20;96869.00;;;;5101124;28;20437;-66
2023/03/21 05:13:55;;;;;;;1.70;1.60;;;3.30;99.90;4.00;96867.00;;;;5099657;28;20482;-67
2023/03/21 05:16:51;;;;;;;1.50;1.40;;;3.20;99.90;4.40;96880.00;;;;5096416;28;20421;-68
2023/03/21 05:19:41;;;;;;;2.67;1.60;;;3.20;99.90;4.40;96879.00;;;;5109092;28;20440;-69
2023/03/21 05:22:39;;;;;;;2.10;1.97;;;3.10;99.90;4.40;96873.00;;;;5107179;28;20440;-68
2023/03/21 05:25:33;;;;;;;4.57;3.70;;;3.10;99.90;3.90;96883.00;;;;5108635;28;20811;-68
2023/03/21 05:28:30;;;;;;;3.53;3.07;;;3.00;99.90;3.90;96875.00;;;;5106767;28;20484;-69
2023/03/21 05:31:22;;;;;;;1.47;1.37;;;3.00;99.90;3.30;96876.00;;;;5105791;28;20978;-70
2023/03/21 05:34:11;;;;;;;1.20;1.10;;;2.80;99.90;3.00;96881.00;;;;5104638;28;20439;-70
2023/03/21 05:37:00;;;;;;;1.40;1.30;;;2.60;99.90;3.90;96891.00;;;;5098732;28;20433;-69
2023/03/21 05:39:49;;;;;;;5.60;1.50;;;2.60;99.90;4.10;96887.00;;;;5105271;28;20452;-69
2023/03/21 05:42:37;;;;;;;3.33;1.80;;;2.70;99.90;3.80;96877.00;;;;5108927;28;20432;-69
2023/03/21 05:45:27;;;;;;;1.80;1.10;;;2.80;99.90;3.40;96877.00;;;;5106918;28;20424;-71
2023/03/21 05:48:16;;;;;;;1.30;1.20;;;2.70;99.90;3.70;96884.00;;;;5108865;28;20502;-69
2023/03/21 05:51:06;;;;;;;1.33;1.23;;;2.80;99.90;3.60;96878.00;;;;5108446;28;20963;-69
2023/03/21 05:53:55;;;;;;;4.47;1.60;;;2.80;99.90;3.90;96883.00;;;;5102872;28;20452;-70
2023/03/21 05:56:43;;;;;;;1.10;1.00;;;2.80;99.90;3.70;96877.00;;;;5099765;28;20489;-70
2023/03/21 05:59:33;;;;;;;1.73;1.63;;;2.80;99.90;3.30;96882.00;;;;5101595;28;20440;-67
2023/03/21 06:02:23;;;;;;;0.90;0.90;;;2.80;99.90;3.90;96882.00;;;;5107509;28;20451;-71
2023/03/21 06:05:12;;;;;;;1.27;1.10;;;2.80;99.90;4.10;96880.00;;;;5107228;28;20503;-71
2023/03/21 06:08:00;;;;;;;6.47;2.17;;;2.90;99.90;4.60;96888.00;;;;5101474;28;20460;-68
2023/03/21 06:10:49;;;;;;;3.80;1.77;;;3.10;99.90;4.60;96894.00;;;;5105706;28;20464;-71
2023/03/21 06:13:38;;;;;;;2.33;0.97;;;3.30;99.90;4.20;96888.00;;;;5104469;28;20436;-67
2023/03/21 06:16:27;;;;;;;0.93;0.93;;;3.40;99.90;4.10;96884.00;;;;5107630;28;20471;-71
2023/03/21 06:19:17;;;;;;;1.60;1.50;;;3.50;99.90;4.30;96881.00;;;;5106070;28;20424;-68
2023/03/21 06:22:06;;;;;;;1.53;1.30;;;3.40;99.90;4.20;96891.00;;;;5104636;28;20452;-71
2023/03/21 06:24:55;;;;;;;1.00;1.00;;;3.40;99.90;4.30;96884.00;;;;5105005;28;20417;-71
2023/03/21 06:27:43;;;;;;;1.93;1.47;;;3.40;99.90;4.80;96891.00;;;;5103181;28;20509;-69
2023/03/21 06:30:32;;;;;;;1.40;1.33;;;3.50;99.90;4.80;96896.00;;;;5097311;28;20456;-70
2023/03/21 06:33:21;;;;;;;1.70;1.60;;;3.60;99.90;4.90;96885.00;;;;5100572;28;20432;-70
2023/03/21 06:36:11;;;;;;;1.20;1.20;;;3.70;99.90;5.00;96881.00;;;;5104373;28;20481;-71
2023/03/21 06:39:00;;;;;;;1.40;1.30;;;3.80;99.90;4.90;96879.00;;;;5107334;28;20951;-72
2023/03/21 06:41:49;;;;;;;1.40;1.30;;;3.90;99.90;5.40;96888.00;;;;5098979;28;20445;-72
2023/03/21 06:44:38;;;;;;;2.30;1.40;;;4.00;99.90;5.30;96892.00;;;;5104180;28;21143;-72
2023/03/21 06:47:26;;;;;;;1.90;1.60;;;4.20;99.90;4.70;96879.00;;;;5103597;28;20460;-70
2023/03/21 06:50:15;;;;;;;2.23;1.43;;;4.20;99.90;5.10;96890.00;;;;5099285;28;20464;-68
2023/03/21 06:53:05;;;;;;;1.93;1.00;;;4.20;99.90;5.20;96886.00;;;;5092407;28;20444;-70
2023/03/21 06:55:54;;;;;;;1.83;1.57;;;4.30;99.90;5.30;96885.00;;;;5105486;28;20939;-67
2023/03/21 06:58:43;;;;;;;2.23;1.27;;;4.50;99.90;5.90;96896.00;;;;5098087;28;20433;-68
2023/03/21 07:01:32;;;;;;;1.57;1.47;;;4.60;99.90;6.20;96883.00;;;;5107250;28;20451;-71
2023/03/21 07:04:20;;;;;;;3.07;1.97;;;4.80;99.90;6.80;96892.00;;;;5098419;28;20424;-71
2023/03/21 07:07:09;;;;;;;3.83;1.90;;;5.00;99.90;7.20;96894.00;;;;5103803;28;20585;-72
2023/03/21 07:09:59;;;;;;;2.40;2.20;;;5.20;99.90;7.50;96909.00;;;;5105241;28;20425;-71
2023/03/21 07:12:48;;;;;;;5.33;2.30;;;5.50;99.90;7.50;96901.00;;;;5101488;28;20203;-70
2023/03/21 07:15:37;;;;;;;3.17;2.40;;;5.80;99.90;7.70;96900.00;;;;5103771;28;20713;-70
2023/03/21 07:18:26;;;;;;;4.90;2.87;;;6.10;99.90;8.00;96895.00;;;;5105890;28;20669;-71
2023/03/21 07:21:15;;;;;;;3.00;1.83;;;6.30;99.90;7.70;96900.00;;;;5103949;28;20218;-71
2023/03/21 07:24:04;;;;;;;4.10;1.40;;;6.50;99.90;7.70;96890.00;;;;5102231;28;20194;-72
2023/03/21 07:26:55;;;;;;;4.83;2.17;;;6.60;99.90;8.10;96895.00;;;;5096872;28;21192;-69
2023/03/21 07:29:45;;;;;;;2.63;2.23;;;6.70;99.90;8.70;96901.00;;;;5102427;28;20717;-72
2023/03/21 07:32:36;;;;;;;2.43;2.10;;;6.90;99.90;9.00;96902.00;;;;5108875;28;20696;-70
2023/03/21 07:35:25;;;;;;;3.43;2.87;;;7.10;99.90;9.50;96904.00;;;;5109420;28;20218;-71
2023/03/21 07:38:15;;;;;;;5.13;2.60;;;7.40;99.90;9.80;96912.00;;;;5108885;28;20227;-72
2023/03/21 07:41:04;;;;;;;5.73;3.90;;;7.60;99.90;10.30;96905.00;;;;5106275;28;20222;-71
2023/03/21 07:43:54;;;;;;;12.47;4.33;;;7.90;99.90;10.60;96899.00;;;;5099495;28;20223;-71
2023/03/21 07:46:43;;;;;;;8.07;4.07;;;8.20;99.90;10.90;96897.00;;;;5104302;28;20203;-71
2023/03/21 07:49:32;;;;;;;8.27;4.00;;;8.60;99.90;11.40;96901.00;;;;5110559;28;20225;-71
2023/03/21 07:52:21;;;;;;;9.53;3.97;;;8.80;99.90;11.60;96894.00;;;;5104504;28;20662;-71
2023/03/21 07:55:10;;;;;;;9.73;2.93;;;9.20;99.90;11.90;96898.00;;;;5110433;28;20191;-71
2023/03/21 07:57:59;;;;;;;9.13;4.47;;;9.40;99.90;12.00;96899.00;;;;5110326;28;20570;-72
2023/03/21 08:00:50;;;;;;;2.57;2.37;;;9.70;99.90;12.20;96891.00;;;;5110924;28;20579;-72
2023/03/21 08:03:39;;;;;;;6.93;2.77;;;9.90;99.90;12.50;96897.00;;;;5104972;28;20190;-72
2023/03/21 08:06:31;;;;;;;5.83;2.77;;;10.10;99.90;12.60;96895.00;;;;5110737;28;20199;-72
2023/03/21 08:09:19;;;;;;;12.40;2.93;;;10.30;99.90;12.90;96896.00;;;;5108428;28;20219;-72
2023/03/21 08:12:08;;;;;;;4.83;2.50;;;10.50;99.90;13.20;96895.00;;;;5110685;28;20249;-72
2023/03/21 08:14:57;;;;;;;2.90;2.10;;;10.70;99.90;13.30;96893.00;;;;5109335;28;20566;-72
2023/03/21 08:17:50;;;;;;;6.00;3.20;;;10.90;99.90;13.50;96892.00;;;;5104854;28;20772;-72
2023/03/21 08:20:39;;;;;;;3.13;2.33;;;11.10;99.90;13.80;96892.00;;;;5106832;27;20897;-72
2023/03/21 08:23:28;;;;;;;2.87;2.30;;;11.30;99.90;14.00;96886.00;;;;5106267;28;20214;-72
2023/03/21 08:26:18;;;;;;;7.67;2.67;;;11.50;99.90;14.10;96883.00;;;;5100732;28;20222;-72
2023/03/21 08:29:06;;;;;;;2.53;2.27;;;11.70;99.90;14.40;96890.00;;;;5098963;28;20226;-69
2023/03/21 08:31:56;;;;;;;6.73;2.83;;;11.90;99.90;14.70;96894.00;;;;5104786;28;20577;-69
2023/03/21 08:34:46;;;;;;;5.17;2.10;;;12.10;99.90;14.70;96874.00;;;;5106533;28;20190;-69
2023/03/21 08:37:36;;;;;;;5.60;2.67;;;12.30;99.90;15.10;96888.00;;;;5110282;28;20225;-69
2023/03/21 08:40:25;;;;;;;5.83;2.47;;;12.50;99.90;14.90;96878.00;;;;5107787;28;20635;-70
2023/03/21 08:43:14;;;;;;;3.73;2.13;;;12.60;99.90;15.30;96876.00;;;;5109024;28;20202;-69
2023/03/21 08:46:03;;;;;;;4.43;2.47;;;12.80;99.90;15.70;96866.00;;;;5109977;28;20198;-69
2023/03/21 08:48:52;;;;;;;5.80;2.63;;;13.00;99.90;16.20;96877.00;;;;5110595;27;20280;-69
2023/03/21 08:51:44;;;;;;;5.97;2.50;;;13.40;99.90;16.70;96881.00;;;;5110719;28;20217;-69
2023/03/21 08:54:33;;;;;;;5.67;2.70;;;13.70;99.90;16.90;96883.00;;;;5102623;28;20665;-72
2023/03/21 08:57:22;;;;;;;4.47;2.17;;;14.00;99.90;16.50;96888.00;;;;5098921;28;20193;-69
2023/03/21 09:00:16;;;;;;;4.33;1.93;;;14.20;99.90;16.60;96877.00;;;;5110419;28;20229;-69
2023/03/21 09:03:04;;;;;;;4.63;2.50;;;14.30;99.90;16.40;96877.00;;;;5094819;28;20574;-68
2023/03/21 09:05:54;;;;;;;3.13;2.17;;;14.30;99.30;16.80;96871.00;;;;5102016;28;20203;-68
2023/03/21 09:08:46;;;;;;;5.27;2.10;;;14.40;99.20;17.00;96868.00;;;;5106265;28;20219;-68
2023/03/21 09:11:34;;;;;;;6.60;2.20;;;14.60;98.50;16.60;96878.00;;;;5102668;28;20229;-67
2023/03/21 09:14:23;;;;;;;4.63;2.03;;;14.60;97.50;16.30;96879.00;;;;5099377;27;20214;-67
2023/03/21 09:17:16;;;;;;;4.57;1.80;;;14.50;96.40;16.40;96875.00;;;;5106756;28;20202;-67
2023/03/21 09:20:10;;;;;;;2.73;1.70;;;14.40;96.50;16.60;96882.00;;;;5109288;28;20198;-67
2023/03/21 09:23:00;;;;;;;5.40;1.77;;;14.40;96.40;16.30;96865.00;;;;5107680;28;20202;-67
2023/03/21 09:25:50;;;;;;;6.17;2.40;;;14.30;95.60;16.50;96862.00;;;;5105964;28;20268;-67
2023/03/21 09:28:40;;;;;;;11.07;2.63;;;14.30;95.20;16.60;96880.00;;;;5109794;28;20210;-67
2023/03/21 09:31:29;;;;;;;6.37;1.60;;;14.40;95.00;16.60;96873.00;;;;5109221;28;20223;-68
2023/03/21 09:34:17;;;;;;;3.47;1.67;;;14.40;94.50;16.50;96859.00;;;;5101985;28;20191;-67
2023/03/21 09:37:10;;;;;;;5.07;1.40;;;14.40;92.70;16.90;96856.00;;;;5102557;28;20565;-68
2023/03/21 09:39:59;;;;;;;1.57;1.30;;;14.50;93.00;17.20;96867.00;;;;5099741;28;20206;-68
2023/03/21 09:43:00;;;;;;;5.90;1.30;;;14.60;92.90;17.10;96861.00;;;;5103914;28;20199;-68
2023/03/21 09:45:55;;;;;;;3.43;1.20;;;14.70;92.70;17.30;96854.00;;;;5098744;28;20716;-67
2023/03/21 09:48:53;;;;;;;2.83;1.30;;;14.80;92.00;17.10;96865.00;;;;5099855;28;20202;-68
2023/03/21 09:51:51;;;;;;;2.07;1.50;;;14.90;90.90;17.10;96851.00;;;;5094206;28;20218;-68
2023/03/21 09:54:43;;;;;;;1.80;1.00;;;14.90;90.90;17.40;96839.00;;;;5109710;28;20199;-68
2023/03/21 09:57:38;;;;;;;2.07;1.43;;;15.00;91.00;17.30;96849.00;;;;5098279;28;20195;-68
2023/03/21 10:00:36;;;;;;;2.23;1.03;;;15.00;90.10;17.80;96840.00;;;;5096131;28;20759;-68
2023/03/21 10:03:33;;;;;;;2.30;1.50;;;15.30;89.60;17.90;96839.00;;;;5104588;28;20249;-68
2023/03/21 10:06:27;;;;;;;3.70;1.30;;;15.50;88.60;18.10;96835.00;;;;5097445;28;20218;-68
2023/03/21 10:09:21;;;;;;;5.03;0.80;;;15.60;87.00;18.80;96816.00;;;;5106496;28;20685;-68
2023/03/21 10:12:20;;;;;;;2.03;0.93;;;15.90;87.90;19.50;96809.00;;;;5106434;28;20217;-68
2023/03/21 10:15:13;;;;;;;3.37;0.70;;;16.30;86.30;20.40;96808.00;;;;5106727;28;20198;-68
2023/03/21 10:18:08;;;;;;;2.00;0.90;;;16.70;85.10;20.20;96833.00;;;;5099436;28;20304;-68
2023/03/21 10:20:57;;;;;;;1.80;0.70;;;17.10;82.70;19.50;96797.00;;;;5104287;28;20222;-68
2023/03/21 10:23:46;;;;;;;1.27;0.70;;;;;21.00;96792.00;;;;5106433;28;20251;-67
2023/03/21 10:26:35;;;;;;;2.30;0.70;;;;;21.70;96797.00;;;;5103909;28;20202;-67
2023/03/21 10:29:26;;;;;;;1.90;1.00;;;;;21.40;96789.00;;;;5104089;28;20227;-70
2023/03/21 10:32:18;;;;;;;1.77;0.77;;;;;22.10;96799.00;;;;5101493;28;20255;-70
2023/03/21 10:35:12;;;;;;;0.53;0.53;;;;;20.50;96798.00;;;;5104463;28;20665;-68
2023/03/21 10:38:02;;;;;;;0.60;0.50;;;;;20.50;96814.00;;;;5097443;28;20210;-68
2023/03/21 10:40:51;;;;;;;0.90;0.70;;;;;21.50;96774.00;;;;5104979;28;20217;-67
2023/03/21 10:43:43;;;;;;;1.10;0.70;;;;;20.50;96762.00;;;;5105246;28;20207;-69
2023/03/21 10:46:33;;;;;;;1.27;0.70;;;;;21.70;96785.00;;;;5105164;28;20219;-68
2023/03/21 10:49:25;;;;;;;0.60;0.50;;;;;22.40;96792.00;;;;5098913;28;20238;-68
2023/03/21 10:52:19;;;;;;;1.03;0.67;;;;;22.10;96794.00;;;;5104616;28;20219;-70
2023/03/21 10:55:17;;;;;;;1.47;0.50;;;;;22.30;96767.00;;;;5099308;28;20203;-69
2023/03/21 10:58:09;;;;;;;0.57;0.50;;;;;21.20;96756.00;;;;5102901;28;20669;-69
2023/03/21 11:01:01;;;;;;;0.40;0.40;;;;;22.20;96803.00;;;;5094037;28;20592;-69
2023/03/21 11:03:50;;;;;;;0.60;0.60;;;;;21.60;96786.00;;;;5098554;28;20205;-70
2023/03/21 11:06:40;;;;;;;1.57;1.47;;;;;22.10;96783.00;;;;5104195;28;20663;-70
2023/03/21 11:09:46;;;;;;;0.80;0.70;;;;;21.80;96779.00;;;;5111993;28;20241;-69
2023/03/21 11:12:37;;;;;;;1.13;0.67;;;;;21.80;96777.00;;;;5104408;28;20198;-69
2023/03/21 11:15:29;;;;;;;0.97;0.87;;;;;21.70;96781.00;;;;5110748;28;20210;-68
2023/03/21 11:18:20;;;;;;;0.77;0.60;;;;;21.80;96778.00;;;;5110742;28;20214;-67
2023/03/21 11:21:11;;;;;;;0.83;0.80;;;;;21.40;96772.00;;;;5112048;28;20206;-67
2023/03/21 11:24:00;;;;;;;0.50;0.50;;;;;21.60;96770.00;;;;5112061;28;20210;-67
2023/03/21 11:26:51;;;;;;;0.60;0.60;;;;;21.40;96725.00;;;;5110968;28;20203;-68
2023/03/21 11:29:44;;;;;;;0.70;0.70;;;;;22.00;96762.00;;;;5112418;28;20272;-70
2023/03/21 11:32:34;;;;;;;0.70;0.70;;;;;21.60;96754.00;;;;5098004;28;20222;-66
2023/03/21 11:35:27;;;;;;;0.97;0.53;;;;;21.00;96727.00;;;;5101685;28;20258;-66
2023/03/21 11:38:26;;;;;;;0.63;0.50;;;;;22.80;96710.00;;;;5105166;28;20195;-66
2023/03/21 11:41:23;;;;;;;0.40;0.40;;;;;24.20;96709.00;;;;5107837;28;20226;-67
2023/03/21 11:44:27;;;;;;;0.70;0.50;;;;;25.40;96705.00;;;;5108620;28;20667;-67
2023/03/21 11:47:16;;;;;;;0.57;0.50;;;;;25.30;96700.00;;;;5101549;28;20203;-68
2023/03/21 11:50:16;;;;;;;0.60;0.50;;;;;24.60;96717.00;;;;5102971;28;20231;-69
2023/03/21 11:53:25;;;;;;;0.80;0.60;;;;;24.60;96741.00;;;;5112265;27;20210;-69
2023/03/21 11:56:25;;;;;;;0.63;0.50;;;;;23.80;96735.00;;;;5108355;28;20211;-68
2023/03/21 11:59:23;;;;;;;1.43;0.97;;;;;22.10;96740.00;;;;5110688;28;20224;-73
2023/03/21 12:02:53;;;;;;;2.77;0.50;;;;;20.10;96682.00;;;;5102996;28;20580;-68
2023/03/21 12:05:47;;;;;;;0.87;0.70;;;;;19.40;96716.00;;;;5109143;28;20248;-65
2023/03/21 12:08:41;;;;;;;2.93;0.70;;;;;19.60;96713.00;;;;5102779;28;20206;-72
2023/03/21 12:11:36;;;;;;;1.20;0.43;;;;;20.30;96710.00;;;;5106769;28;20234;-71
2023/03/21 12:14:30;;;;;;;2.10;0.67;;;;;20.70;96719.00;;;;5104739;28;20206;-68
2023/03/21 12:17:32;;;;;;;0.73;0.60;;;;;20.20;96710.00;;;;5104548;28;20585;-72
2023/03/21 12:20:32;;;;;;;0.70;0.50;;;;;20.80;96719.00;;;;5104913;28;20219;-71
2023/03/21 12:23:38;;;;;;;0.50;0.50;;;;;20.30;96717.00;;;;5100662;28;20227;-72
2023/03/21 12:26:29;;;;;;;0.93;0.50;;;;;21.00;96705.00;;;;5100557;28;20203;-72
2023/03/21 12:29:36;;;;;;;0.87;0.83;;;;;21.00;96699.00;;;;5100704;28;20407;-71
2023/03/21 12:32:45;;;;;;;1.83;0.60;;;;;21.70;96701.00;;;;5108858;28;20214;-71
2023/03/21 12:35:46;;;;;;;0.77;0.60;;;;;21.80;96701.00;;;;5104800;28;20199;-71
2023/03/21 12:38:41;;;;;;;1.07;0.80;;;;;22.20;96703.00;;;;5102223;28;20561;-71
2023/03/21 12:41:34;;;;;;;1.23;0.50;;;;;22.20;96702.00;;;;5096575;28;20222;-71
2023/03/21 12:44:25;;;;;;;1.10;0.40;;;;;22.30;96694.00;;;;5099671;28;20207;-71
2023/03/21 12:47:16;;;;;;;0.50;0.50;;;;;21.90;96696.00;;;;5100001;28;20614;-71
2023/03/21 12:50:14;;;;;;;2.20;0.60;;;;;21.10;96679.00;;;;5091720;28;20559;-71
2023/03/21 12:53:11;;;;;;;0.73;0.73;;;;;21.40;96675.00;;;;5106042;28;20199;-72
2023/03/21 12:56:03;;;;;;;0.43;0.43;;;;;20.70;96661.00;;;;5097597;28;20203;-71
2023/03/21 12:58:57;;;;;;;1.60;0.90;;;;;21.20;96663.00;;;;5092972;28;20200;-69
2023/03/21 13:01:47;;;;;;;0.80;0.80;;;;;20.50;96653.00;;;;5097222;28;20223;-71
2023/03/21 13:04:46;;;;;;;0.60;0.60;;;;;22.10;96652.00;;;;5098220;28;20207;-70
2023/03/21 13:07:39;;;;;;;2.20;0.80;;;;;22.60;96646.00;;;;5096026;28;20633;-70
2023/03/21 13:10:28;;;;;;;0.60;0.50;;;;;23.20;96658.00;;;;5100511;28;20233;-70
2023/03/21 13:13:22;;;;;;;0.83;0.50;;;;;23.30;96655.00;;;;5108348;28;20207;-71
2023/03/21 13:16:14;;;;;;;1.13;0.93;;;;;22.20;96646.00;;;;5106705;28;20549;-70
2023/03/21 13:19:14;;;;;;;0.63;0.63;;;;;21.90;96634.00;;;;5092850;28;20196;-67